Time;durP1;ratioP1;P1;durP2;ratioP2;P2;SDS_P1;SDS_P2;PMS_P1;PMS_P2;Temp;Humidity;BMP_temperature;BMP_pressure;BME280_temperature;BME280_humidity;BME280_pressure;Samples;Min_cycle;Max_cycle;Signal;HPM_P1;HPM_P2
2023/04/06 05:31:20;;;;;;;;;21.25;19.00;;;;;;;;5260555;22;52142;-81
2023/04/06 05:33:45;;;;;;;;;20.75;17.25;;;;;;;;5075760;22;50052;-81
2023/04/06 05:36:11;;;;;;;;;24.75;24.75;;;;;;;;5071107;27;49956;-77
2023/04/06 05:38:36;;;;;;;;;17.50;17.25;;;;;;;;5071196;27;51512;-80
2023/04/06 05:41:02;;;;;;;;;21.75;19.25;;;;;;;;5065335;27;49792;-78
2023/04/06 05:43:27;;;;;;;;;23.25;18.75;;;;;;;;5069343;27;49835;-78
2023/04/06 05:45:52;;;;;;;;;21.25;17.00;;;;;;;;5070247;27;50030;-87
2023/04/06 05:48:17;;;;;;;;;22.00;17.75;;;;;;;;5069921;27;51364;-78
2023/04/06 05:50:42;;;;;;;;;20.75;18.75;;;;;;;;5062084;27;50057;-81
2023/04/06 05:53:08;;;;;;;;;27.50;24.75;;;;;;;;5061722;28;50008;-86
2023/04/06 05:55:33;;;;;;;;;24.00;21.50;;;;;;;;5069437;27;50167;-78
2023/04/06 05:57:58;;;;;;;;;27.75;24.00;;;;;;;;5068848;27;50182;-86
2023/04/06 06:00:23;;;;;;;;;27.00;25.50;;;;;;;;5068716;27;50067;-88
2023/04/06 06:02:48;;;;;;;;;22.50;21.25;;;;;;;;5078366;27;49778;-82
2023/04/06 06:05:14;;;;;;;;;18.25;18.25;;;;;;;;5069980;27;49964;-81
2023/04/06 06:07:39;;;;;;;;;27.25;22.50;;;;;;;;5051535;28;51349;-84
2023/04/06 06:10:05;;;;;;;;;28.75;24.00;;;;;;;;5068947;27;49880;-83
2023/04/06 06:12:30;;;;;;;;;30.25;24.25;;;;;;;;5068812;27;50242;-83
2023/04/06 06:14:55;;;;;;;;;25.50;21.25;;;;;;;;5071294;27;50146;-86
2023/04/06 06:17:20;;;;;;;;;24.75;24.75;;;;;;;;5073894;27;50560;-86
2023/04/06 06:19:46;;;;;;;;;22.50;22.50;;;;;;;;5070011;27;50264;-85
2023/04/06 06:22:11;;;;;;;;;27.75;24.75;;;;;;;;5069069;27;49994;-84
2023/04/06 06:24:36;;;;;;;;;30.25;24.75;;;;;;;;5077099;27;49664;-78
2023/04/06 06:27:01;;;;;;;;;25.75;22.50;;;;;;;;5050662;28;50096;-84
2023/04/06 06:29:26;;;;;;;;;27.25;24.50;;;;;;;;5050971;27;49674;-83
2023/04/06 06:31:52;;;;;;;;;32.50;25.50;;;;;;;;5067414;27;49723;-84
2023/04/06 06:34:17;;;;;;;;;24.50;23.00;;;;;;;;5062823;27;49757;-84
2023/04/06 06:36:42;;;;;;;;;29.75;28.25;;;;;;;;5057706;27;52774;-86
2023/04/06 06:39:07;;;;;;;;;26.50;24.50;;;;;;;;5073148;27;50008;-81
2023/04/06 06:41:32;;;;;;;;;34.75;26.25;;;;;;;;5069458;27;49624;-81
2023/04/06 06:43:58;;;;;;;;;29.25;26.25;;;;;;;;5069048;27;50005;-83
2023/04/06 06:46:23;;;;;;;;;21.50;20.25;;;;;;;;5068418;27;50654;-84
2023/04/06 06:48:48;;;;;;;;;32.50;26.75;;;;;;;;5053912;27;49730;-88
2023/04/06 06:51:13;;;;;;;;;27.50;24.50;;;;;;;;5040662;28;50230;-85
2023/04/06 06:53:38;;;;;;;;;30.75;24.00;;;;;;;;5059359;27;49722;-80
2023/04/06 06:56:04;;;;;;;;;23.50;23.50;;;;;;;;5061497;27;51007;-76
2023/04/06 06:58:29;;;;;;;;;24.00;21.50;;;;;;;;5060548;27;49738;-77
2023/04/06 07:00:58;;;;;;;;;20.50;17.50;;;;;;;;5060724;27;49672;-77
2023/04/06 07:03:23;;;;;;;;;26.00;24.75;;;;;;;;5059634;27;49875;-80
2023/04/06 07:05:52;;;;;;;;;27.50;27.25;;;;;;;;5059278;27;50863;-76
2023/04/06 07:08:18;;;;;;;;;32.50;28.00;;;;;;;;5058892;27;50180;-76
2023/04/06 07:10:43;;;;;;;;;30.50;26.25;;;;;;;;5060155;27;49918;-77
2023/04/06 07:13:08;;;;;;;;;27.50;24.50;;;;;;;;5058389;28;49763;-81
2023/04/06 07:15:33;;;;;;;;;28.75;28.25;;;;;;;;5057178;28;51042;-80
2023/04/06 07:17:59;;;;;;;;;27.25;24.75;;;;;;;;5059964;28;50086;-78
2023/04/06 07:20:24;;;;;;;;;28.50;26.00;;;;;;;;5058696;27;50154;-78
2023/04/06 07:22:50;;;;;;;;;34.50;30.50;;;;;;;;5058694;27;49766;-76
2023/04/06 07:25:15;;;;;;;;;33.00;25.25;;;;;;;;5059951;27;50664;-78
2023/04/06 07:27:40;;;;;;;;;32.75;30.00;;;;;;;;5060365;27;49690;-77
2023/04/06 07:30:06;;;;;;;;;36.50;31.25;;;;;;;;5056503;27;49860;-78
2023/04/06 07:32:31;;;;;;;;;31.00;30.75;;;;;;;;5058041;27;50081;-79
2023/04/06 07:34:57;;;;;;;;;20.75;20.75;;;;;;;;5059446;27;50462;-78
2023/04/06 07:37:23;;;;;;;;;34.75;27.00;;;;;;;;5058232;27;49863;-78
2023/04/06 07:39:48;;;;;;;;;29.25;27.25;;;;;;;;5057713;28;49966;-79
2023/04/06 07:42:13;;;;;;;;;34.75;34.00;;;;;;;;5059518;27;49906;-78
2023/04/06 07:44:38;;;;;;;;;38.50;30.00;;;;;;;;5057261;28;50855;-79
2023/04/06 07:47:04;;;;;;;;;32.25;29.25;;;;;;;;5061300;27;50216;-77
2023/04/06 07:49:29;;;;;;;;;35.50;30.25;;;;;;;;5056665;28;49941;-78
2023/04/06 07:51:56;;;;;;;;;24.50;23.50;;;;;;;;5059509;27;50082;-78
2023/04/06 07:54:21;;;;;;;;;28.25;24.50;;;;;;;;5057710;27;49832;-78
2023/04/06 07:56:46;;;;;;;;;37.75;32.25;;;;;;;;5058535;27;49904;-78
2023/04/06 07:59:11;;;;;;;;;31.00;27.50;;;;;;;;5057255;28;49775;-78
2023/04/06 08:01:37;;;;;;;;;28.50;25.00;;;;;;;;5058684;27;50018;-78
2023/04/06 08:04:02;;;;;;;;;32.25;28.50;;;;;;;;5060469;27;51467;-75
2023/04/06 08:06:27;;;;;;;;;29.00;29.00;;;;;;;;5058531;28;49951;-76
2023/04/06 08:08:52;;;;;;;;;30.50;27.00;;;;;;;;5058984;27;49802;-77
2023/04/06 08:11:18;;;;;;;;;27.00;25.75;;;;;;;;5056226;27;50091;-78
2023/04/06 08:13:43;;;;;;;;;30.75;29.25;;;;;;;;5057740;28;49878;-77
2023/04/06 08:16:08;;;;;;;;;26.50;24.25;;;;;;;;5056755;27;50251;-78
2023/04/06 08:18:33;;;;;;;;;21.75;20.50;;;;;;;;5058615;28;50281;-77
2023/04/06 08:20:59;;;;;;;;;27.75;27.50;;;;;;;;5058639;27;49992;-78
2023/04/06 08:23:24;;;;;;;;;28.75;25.25;;;;;;;;5058091;27;49695;-79
2023/04/06 08:25:49;;;;;;;;;28.25;27.00;;;;;;;;5054776;27;49717;-80
2023/04/06 08:28:15;;;;;;;;;38.50;30.75;;;;;;;;5057868;27;50035;-79
2023/04/06 08:30:41;;;;;;;;;35.50;32.00;;;;;;;;5057666;27;50098;-79
2023/04/06 08:33:06;;;;;;;;;34.50;28.25;;;;;;;;5078062;27;51723;-79
2023/04/06 08:35:31;;;;;;;;;27.75;23.00;;;;;;;;5069699;27;49721;-80
2023/04/06 08:37:57;;;;;;;;;38.50;30.50;;;;;;;;5067568;27;49742;-78
2023/04/06 08:40:22;;;;;;;;;26.75;24.75;;;;;;;;5067487;27;49929;-79
2023/04/06 08:42:50;;;;;;;;;30.25;29.00;;;;;;;;5067645;27;50692;-78
2023/04/06 08:45:16;;;;;;;;;30.25;27.75;;;;;;;;5072716;27;49739;-79
2023/04/06 08:47:41;;;;;;;;;31.50;29.75;;;;;;;;5049362;27;49903;-78
2023/04/06 08:50:07;;;;;;;;;35.75;32.75;;;;;;;;5068361;27;50125;-79
2023/04/06 08:52:33;;;;;;;;;29.00;25.50;;;;;;;;5066307;27;50046;-79
2023/04/06 08:54:59;;;;;;;;;23.50;21.50;;;;;;;;5067462;27;50071;-79
2023/04/06 08:57:25;;;;;;;;;36.50;31.25;;;;;;;;5078034;27;49782;-79
2023/04/06 08:59:50;;;;;;;;;32.25;29.25;;;;;;;;5069882;27;50046;-80
2023/04/06 09:02:17;;;;;;;;;32.75;29.25;;;;;;;;5070479;27;50589;-79
2023/04/06 09:04:43;;;;;;;;;28.50;28.25;;;;;;;;5080950;27;49768;-78
2023/04/06 09:07:08;;;;;;;;;27.75;26.50;;;;;;;;5063030;28;49934;-78
2023/04/06 09:09:33;;;;;;;;;26.50;25.75;;;;;;;;5072941;27;50084;-79
2023/04/06 09:12:05;;;;;;;;;31.00;27.25;;;;;;;;5052448;28;51396;-79
2023/04/06 09:14:35;;;;;;;;;28.75;27.25;;;;;;;;5070550;27;49629;-79
2023/04/06 09:17:00;;;;;;;;;26.25;22.00;;;;;;;;5070804;27;49634;-79
2023/04/06 09:19:25;;;;;;;;;28.25;23.25;;;;;;;;5078161;27;50093;-79
2023/04/06 09:22:00;;;;;;;;;28.25;28.00;;;;;;;;5078301;27;51582;-79
2023/04/06 09:24:26;;;;;;;;;24.25;23.75;;;;;;;;5070531;27;49823;-79
2023/04/06 09:26:51;;;;;;;;;26.75;23.25;;;;;;;;5070500;27;49709;-79
2023/04/06 09:29:24;;;;;;;;;21.00;19.25;;;;;;;;5070081;27;49988;-80
2023/04/06 09:31:49;;;;;;;;;19.25;19.25;;;;;;;;5067478;27;50885;-79
2023/04/06 09:34:20;;;;;;;;;19.00;18.75;;;;;;;;5081123;27;50184;-79
2023/04/06 09:36:45;;;;;;;;;18.50;16.25;;;;;;;;5063343;28;49929;-78
2023/04/06 09:39:12;;;;;;;;;18.00;15.25;;;;;;;;5067694;28;50691;-77
2023/04/06 09:41:39;;;;;;;;;20.25;18.50;;;;;;;;5075632;27;49790;-78
2023/04/06 09:44:08;;;;;;;;;16.25;16.25;;;;;;;;5066844;27;50178;-76
2023/04/06 09:46:38;;;;;;;;;21.75;19.00;;;;;;;;5072583;27;49886;-79
2023/04/06 09:49:04;;;;;;;;;18.00;13.50;;;;;;;;5067895;27;50141;-80
2023/04/06 09:51:52;;;;;;;;;21.50;17.25;;;;;;;;5065689;27;50647;-79
2023/04/06 09:54:21;;;;;;;;;17.00;15.75;;;;;;;;5068442;27;49849;-80
2023/04/06 09:56:50;;;;;;;;;15.50;14.25;;;;;;;;5073938;27;49826;-82
2023/04/06 09:59:21;;;;;;;;;9.00;8.00;;;;;;;;5065444;27;49855;-78
2023/04/06 10:01:48;;;;;;;;;15.75;14.75;;;;;;;;5066804;27;49885;-80
2023/04/06 10:04:13;;;;;;;;;21.50;20.25;;;;;;;;5059411;27;49894;-79
2023/04/06 10:06:39;;;;;;;;;16.00;15.25;;;;;;;;5071822;27;50216;-80
2023/04/06 10:09:07;;;;;;;;;15.50;14.25;;;;;;;;5074434;27;50006;-83
2023/04/06 10:11:33;;;;;;;;;14.25;11.50;;;;;;;;5068397;27;49821;-82
2023/04/06 10:13:58;;;;;;;;;14.00;12.50;;;;;;;;5065664;27;49651;-84
2023/04/06 10:16:24;;;;;;;;;13.00;12.50;;;;;;;;5049603;27;50080;-84
2023/04/06 10:18:53;;;;;;;;;14.75;14.25;;;;;;;;5074934;27;49905;-82
2023/04/06 10:21:20;;;;;;;;;11.00;11.00;;;;;;;;5072308;27;50098;-82
2023/04/06 10:23:50;;;;;;;;;14.50;12.50;;;;;;;;5069006;27;49760;-81
2023/04/06 10:26:16;;;;;;;;;15.50;15.25;;;;;;;;5068944;28;49691;-81
2023/04/06 10:28:42;;;;;;;;;14.25;13.00;;;;;;;;5067708;27;50051;-83
2023/04/06 10:31:08;;;;;;;;;10.00;10.00;;;;;;;;5068504;28;51377;-81
2023/04/06 10:33:33;;;;;;;;;15.75;13.00;;;;;;;;5068307;27;49681;-81
2023/04/06 10:36:09;;;;;;;;;13.75;13.75;;;;;;;;5069334;27;49907;-81
2023/04/06 10:38:35;;;;;;;;;11.50;10.75;;;;;;;;5065337;27;50083;-81
2023/04/06 10:41:04;;;;;;;;;11.50;10.00;;;;;;;;5068546;27;49789;-81
2023/04/06 10:43:32;;;;;;;;;15.25;13.25;;;;;;;;5056265;27;49763;-81
2023/04/06 10:46:00;;;;;;;;;14.00;12.25;;;;;;;;5069471;27;49804;-80
2023/04/06 10:48:35;;;;;;;;;13.25;13.25;;;;;;;;5069380;27;50021;-80
2023/04/06 10:51:01;;;;;;;;;13.50;10.50;;;;;;;;5054841;28;53345;-81
2023/04/06 10:53:27;;;;;;;;;10.00;10.00;;;;;;;;5068497;27;49732;-80
2023/04/06 10:55:54;;;;;;;;;12.25;10.00;;;;;;;;5069484;27;49771;-80
2023/04/06 10:58:19;;;;;;;;;11.75;11.00;;;;;;;;5068977;27;50050;-81
2023/04/06 11:00:45;;;;;;;;;7.50;7.50;;;;;;;;5069238;27;49957;-81
2023/04/06 11:03:11;;;;;;;;;5.50;4.00;;;;;;;;5067570;28;49942;-80
2023/04/06 11:05:36;;;;;;;;;8.75;8.00;;;;;;;;5068239;28;49716;-80
2023/04/06 11:08:01;;;;;;;;;9.75;8.75;;;;;;;;5067579;27;50048;-79
2023/04/06 11:10:26;;;;;;;;;13.50;13.00;;;;;;;;5067034;28;50401;-80
2023/04/06 11:12:54;;;;;;;;;8.50;7.25;;;;;;;;5069092;27;49759;-80
2023/04/06 11:15:20;;;;;;;;;10.00;8.25;;;;;;;;5069151;27;50039;-80
2023/04/06 11:17:45;;;;;;;;;9.50;8.50;;;;;;;;5067615;27;50421;-81
2023/04/06 11:20:11;;;;;;;;;10.50;9.00;;;;;;;;5068741;27;50553;-80
2023/04/06 11:22:36;;;;;;;;;9.25;9.25;;;;;;;;5050515;28;49924;-80
2023/04/06 11:25:05;;;;;;;;;8.00;7.00;;;;;;;;5069239;27;49827;-80
2023/04/06 11:27:31;;;;;;;;;9.50;7.75;;;;;;;;5050358;28;49887;-79
2023/04/06 11:29:57;;;;;;;;;8.25;8.25;;;;;;;;5068537;27;49849;-78
2023/04/06 11:32:23;;;;;;;;;6.75;6.00;;;;;;;;5067737;27;49678;-79
2023/04/06 11:34:48;;;;;;;;;6.50;6.50;;;;;;;;5066954;28;49795;-79
2023/04/06 11:37:14;;;;;;;;;4.75;4.75;;;;;;;;5068333;27;49802;-79
2023/04/06 11:39:40;;;;;;;;;2.75;2.75;;;;;;;;5077448;27;49827;-80
2023/04/06 11:42:05;;;;;;;;;7.75;5.75;;;;;;;;5073268;27;50127;-80
2023/04/06 11:44:42;;;;;;;;;5.75;4.50;;;;;;;;5074750;27;49784;-79
2023/04/06 11:47:08;;;;;;;;;6.75;5.00;;;;;;;;5072460;27;49785;-79
2023/04/06 11:49:36;;;;;;;;;9.25;7.25;;;;;;;;5068345;27;50708;-81
2023/04/06 11:52:01;;;;;;;;;5.00;3.00;;;;;;;;5066482;27;49873;-81
2023/04/06 11:54:30;;;;;;;;;4.00;4.00;;;;;;;;5067380;27;49724;-81
2023/04/06 11:56:56;;;;;;;;;4.25;3.00;;;;;;;;5072531;27;50086;-81
2023/04/06 11:59:22;;;;;;;;;5.75;4.50;;;;;;;;5074697;27;50219;-78
2023/04/06 12:01:47;;;;;;;;;6.25;5.00;;;;;;;;5071163;27;49846;-82
2023/04/06 12:04:13;;;;;;;;;4.25;3.25;;;;;;;;5058926;27;50067;-84
2023/04/06 12:06:38;;;;;;;;;3.50;3.50;;;;;;;;5072820;27;50345;-77
2023/04/06 12:09:03;;;;;;;;;3.50;3.25;;;;;;;;5071854;27;50867;-82
2023/04/06 12:11:28;;;;;;;;;3.50;3.25;;;;;;;;5069636;27;49853;-82
2023/04/06 12:13:53;;;;;;;;;3.50;3.50;;;;;;;;5070263;27;50074;-82
2023/04/06 12:16:19;;;;;;;;;3.75;2.00;;;;;;;;5075830;27;50038;-80
2023/04/06 12:18:44;;;;;;;;;4.00;4.00;;;;;;;;5070388;27;50952;-85
2023/04/06 12:21:10;;;;;;;;;2.00;2.00;;;;;;;;5072635;27;49747;-82
2023/04/06 12:23:35;;;;;;;;;2.25;2.25;;;;;;;;5066256;27;50260;-79
2023/04/06 12:26:01;;;;;;;;;3.50;3.50;;;;;;;;5064823;27;49674;-85
2023/04/06 12:28:26;;;;;;;;;2.75;2.75;;;;;;;;5068711;27;49812;-84
2023/04/06 12:30:52;;;;;;;;;4.00;4.00;;;;;;;;5072805;27;49711;-84
2023/04/06 12:33:17;;;;;;;;;4.00;4.00;;;;;;;;5071321;27;50005;-83
2023/04/06 12:35:42;;;;;;;;;4.50;3.50;;;;;;;;5069536;27;49946;-85
2023/04/06 12:38:08;;;;;;;;;4.00;4.00;;;;;;;;5076389;27;49739;-91
2023/04/06 12:40:36;;;;;;;;;3.75;3.75;;;;;;;;5072050;27;49817;-85
2023/04/06 12:43:01;;;;;;;;;6.00;4.00;;;;;;;;5082945;27;49847;-87
2023/04/06 12:45:26;;;;;;;;;3.25;3.25;;;;;;;;5085689;27;49859;-84
2023/04/06 12:47:52;;;;;;;;;1.25;0.75;;;;;;;;5075830;27;49733;-85
2023/04/06 12:50:17;;;;;;;;;4.75;4.75;;;;;;;;5083012;27;50245;-82
2023/04/06 12:52:42;;;;;;;;;3.50;3.50;;;;;;;;5070982;28;49795;-84
2023/04/06 12:55:08;;;;;;;;;2.75;2.75;;;;;;;;5074467;27;49744;-82
2023/04/06 12:57:33;;;;;;;;;2.50;1.75;;;;;;;;5073796;27;51706;-83
2023/04/06 12:59:58;;;;;;;;;1.75;1.75;;;;;;;;5071333;27;49699;-84
2023/04/06 13:02:23;;;;;;;;;2.00;2.00;;;;;;;;5071906;27;49973;-82
2023/04/06 13:04:49;;;;;;;;;1.00;1.00;;;;;;;;5071374;27;49766;-84
2023/04/06 13:07:15;;;;;;;;;1.50;1.50;;;;;;;;5051662;27;49902;-82
2023/04/06 13:09:40;;;;;;;;;3.00;2.75;;;;;;;;5070452;27;49715;-77
2023/04/06 13:12:05;;;;;;;;;1.75;1.75;;;;;;;;5069874;27;49993;-80
2023/04/06 13:14:31;;;;;;;;;3.00;3.00;;;;;;;;5071326;27;49655;-81
2023/04/06 13:16:57;;;;;;;;;6.00;3.00;;;;;;;;5082553;27;50800;-82
2023/04/06 13:19:22;;;;;;;;;3.00;2.00;;;;;;;;5069922;27;49790;-83
2023/04/06 13:21:47;;;;;;;;;1.75;1.75;;;;;;;;5076461;27;49632;-82
2023/04/06 13:24:12;;;;;;;;;2.25;2.00;;;;;;;;5068003;27;50035;-80
2023/04/06 13:26:38;;;;;;;;;5.50;3.00;;;;;;;;5068984;27;49867;-81
2023/04/06 13:29:03;;;;;;;;;4.00;1.00;;;;;;;;5070928;27;49802;-79
2023/04/06 13:31:28;;;;;;;;;1.00;1.00;;;;;;;;5069656;28;50025;-82
2023/04/06 13:33:54;;;;;;;;;2.00;2.00;;;;;;;;5075108;27;49654;-82
2023/04/06 13:36:19;;;;;;;;;1.75;1.75;;;;;;;;5076315;27;50719;-81
2023/04/06 13:38:45;;;;;;;;;0.00;0.00;;;;;;;;5072211;27;50045;-82
2023/04/06 13:41:16;;;;;;;;;1.50;1.50;;;;;;;;5080778;27;49957;-83
2023/04/06 13:43:42;;;;;;;;;2.00;2.00;;;;;;;;5073536;27;50151;-82
2023/04/06 13:46:08;;;;;;;;;1.00;1.00;;;;;;;;5069764;27;51833;-82
2023/04/06 13:48:33;;;;;;;;;2.75;2.75;;;;;;;;5070222;27;50051;-82
2023/04/06 13:51:07;;;;;;;;;0.75;0.75;;;;;;;;5070401;27;49932;-83
2023/04/06 13:53:32;;;;;;;;;1.50;1.50;;;;;;;;5070743;27;49794;-82
2023/04/06 13:55:57;;;;;;;;;1.50;1.00;;;;;;;;5069269;27;50616;-82
2023/04/06 13:58:22;;;;;;;;;1.00;1.00;;;;;;;;5079271;27;49764;-83
2023/04/06 14:00:48;;;;;;;;;0.75;0.75;;;;;;;;5076881;27;49720;-83
2023/04/06 14:03:13;;;;;;;;;3.00;0.75;;;;;;;;5070698;27;49706;-83
2023/04/06 14:05:38;;;;;;;;;1.50;1.50;;;;;;;;5066603;27;50767;-83
2023/04/06 14:08:03;;;;;;;;;3.25;1.25;;;;;;;;5069880;27;49879;-82
2023/04/06 14:10:28;;;;;;;;;2.00;1.00;;;;;;;;5069762;27;49829;-82
2023/04/06 14:12:54;;;;;;;;;1.75;0.75;;;;;;;;5077495;27;49643;-86
2023/04/06 14:15:21;;;;;;;;;0.75;0.75;;;;;;;;5069205;27;50795;-81
2023/04/06 14:17:46;;;;;;;;;1.00;1.00;;;;;;;;5068910;27;49741;-82
2023/04/06 14:20:13;;;;;;;;;3.75;0.00;;;;;;;;5070133;27;50220;-82
2023/04/06 14:22:40;;;;;;;;;0.00;0.00;;;;;;;;5075604;27;50106;-81
2023/04/06 14:25:06;;;;;;;;;0.00;0.00;;;;;;;;5088566;27;50218;-83
2023/04/06 14:27:31;;;;;;;;;0.00;0.00;;;;;;;;5070274;27;50034;-83
2023/04/06 14:29:57;;;;;;;;;1.25;1.00;;;;;;;;5068850;27;49810;-85
2023/04/06 14:32:22;;;;;;;;;1.00;1.00;;;;;;;;5070001;27;50154;-83
2023/04/06 14:34:47;;;;;;;;;1.00;1.00;;;;;;;;5070210;27;51316;-83
2023/04/06 14:37:12;;;;;;;;;2.00;1.00;;;;;;;;5069835;27;49734;-82
2023/04/06 14:39:37;;;;;;;;;0.00;0.00;;;;;;;;5069480;27;49820;-85
2023/04/06 14:42:02;;;;;;;;;2.25;0.75;;;;;;;;5073339;27;49766;-83
2023/04/06 14:44:28;;;;;;;;;0.25;0.25;;;;;;;;5078684;27;50129;-85
2023/04/06 14:46:53;;;;;;;;;1.00;1.00;;;;;;;;5069966;27;49733;-83
2023/04/06 14:49:18;;;;;;;;;1.50;1.25;;;;;;;;5071226;27;49778;-90
2023/04/06 14:51:43;;;;;;;;;1.50;1.00;;;;;;;;5085071;27;50158;-86
2023/04/06 14:54:08;;;;;;;;;1.00;1.00;;;;;;;;5089157;27;49939;-88
2023/04/06 14:56:33;;;;;;;;;1.00;1.00;;;;;;;;5073438;27;49876;-87
2023/04/06 14:59:01;;;;;;;;;1.00;1.00;;;;;;;;5070375;27;50130;-88
2023/04/06 15:01:26;;;;;;;;;0.50;0.50;;;;;;;;5084674;27;50423;-87
2023/04/06 15:03:51;;;;;;;;;0.25;0.25;;;;;;;;5070374;27;49841;-89
2023/04/06 15:06:17;;;;;;;;;3.50;2.50;;;;;;;;5074877;27;49820;-90
2023/04/06 15:08:42;;;;;;;;;0.00;0.00;;;;;;;;5070013;27;50189;-84
2023/04/06 15:11:08;;;;;;;;;2.00;1.00;;;;;;;;5069814;27;50096;-80
2023/04/06 15:13:33;;;;;;;;;1.25;1.25;;;;;;;;5069929;27;50165;-79
2023/04/06 15:15:58;;;;;;;;;1.00;1.00;;;;;;;;5068986;27;49923;-80
2023/04/06 15:18:23;;;;;;;;;1.00;1.00;;;;;;;;5069610;27;49695;-83
2023/04/06 15:20:49;;;;;;;;;1.00;1.00;;;;;;;;5069972;27;50015;-81
2023/04/06 15:23:14;;;;;;;;;1.00;1.00;;;;;;;;5069776;27;51494;-81
2023/04/06 15:25:41;;;;;;;;;1.00;1.00;;;;;;;;5069582;27;50051;-83
2023/04/06 15:28:06;;;;;;;;;2.00;2.00;;;;;;;;5051683;28;49611;-84
2023/04/06 15:30:31;;;;;;;;;0.00;0.00;;;;;;;;5069306;27;49661;-84
2023/04/06 15:33:00;;;;;;;;;0.00;0.00;;;;;;;;5068459;27;50700;-82
2023/04/06 15:35:26;;;;;;;;;0.00;0.00;;;;;;;;5067669;28;50257;-79
2023/04/06 15:37:52;;;;;;;;;2.50;1.25;;;;;;;;5068337;28;50110;-80
2023/04/06 15:40:17;;;;;;;;;2.00;2.00;;;;;;;;5059962;28;50122;-80
2023/04/06 15:42:43;;;;;;;;;1.75;0.00;;;;;;;;5067291;28;49787;-81
2023/04/06 15:45:09;;;;;;;;;3.00;1.00;;;;;;;;5062022;28;49921;-77
2023/04/06 15:47:34;;;;;;;;;1.75;1.75;;;;;;;;5066620;28;49772;-68
2023/04/06 15:49:59;;;;;;;;;2.25;2.25;;;;;;;;5065088;28;49946;-68
2023/04/06 15:52:24;;;;;;;;;1.50;0.50;;;;;;;;5046830;28;50726;-68
2023/04/06 15:54:50;;;;;;;;;1.00;1.00;;;;;;;;5055137;28;50052;-70
2023/04/06 15:57:15;;;;;;;;;0.00;0.00;;;;;;;;5056110;28;49674;-71
2023/04/06 15:59:40;;;;;;;;;0.00;0.00;;;;;;;;5067773;28;49820;-69
2023/04/06 16:02:05;;;;;;;;;0.00;0.00;;;;;;;;5066432;28;50634;-68
2023/04/06 16:04:31;;;;;;;;;1.25;1.25;;;;;;;;5068037;28;50017;-69
2023/04/06 16:06:56;;;;;;;;;0.00;0.00;;;;;;;;5070067;28;49841;-70
2023/04/06 16:09:21;;;;;;;;;2.75;1.00;;;;;;;;5068651;28;49965;-70
2023/04/06 16:11:46;;;;;;;;;1.00;1.00;;;;;;;;5068956;28;51621;-69
2023/04/06 16:14:11;;;;;;;;;1.25;0.00;;;;;;;;5067047;28;49752;-70
2023/04/06 16:16:36;;;;;;;;;1.75;1.00;;;;;;;;5067924;28;49727;-69
2023/04/06 16:19:02;;;;;;;;;1.00;1.00;;;;;;;;5053640;28;50038;-68
2023/04/06 16:21:27;;;;;;;;;2.00;2.00;;;;;;;;5065218;28;50363;-67
2023/04/06 16:23:52;;;;;;;;;1.75;1.75;;;;;;;;5063274;28;49852;-68
2023/04/06 16:26:18;;;;;;;;;0.25;0.25;;;;;;;;5065943;28;49908;-69
2023/04/06 16:28:43;;;;;;;;;1.25;1.25;;;;;;;;5068254;28;49660;-68
2023/04/06 16:31:26;;;;;;;;;2.00;1.00;;;;;;;;5064042;28;50362;-68
2023/04/06 16:33:52;;;;;;;;;1.50;1.00;;;;;;;;5066952;28;49781;-68
2023/04/06 16:36:27;;;;;;;;;2.25;2.25;;;;;;;;5065126;28;49607;-68
2023/04/06 16:38:53;;;;;;;;;0.50;0.50;;;;;;;;5054833;28;50265;-69
2023/04/06 16:41:19;;;;;;;;;0.75;0.75;;;;;;;;5061584;28;50052;-68
2023/04/06 16:43:45;;;;;;;;;1.75;0.75;;;;;;;;5070613;28;49997;-68
2023/04/06 16:46:10;;;;;;;;;2.75;1.00;;;;;;;;5064798;28;49757;-68
2023/04/06 16:48:35;;;;;;;;;1.00;1.00;;;;;;;;5069556;28;49768;-69
2023/04/06 16:51:05;;;;;;;;;1.00;1.00;;;;;;;;5069946;28;51453;-69
2023/04/06 16:53:30;;;;;;;;;1.00;1.00;;;;;;;;5068210;28;50023;-69
2023/04/06 16:55:55;;;;;;;;;2.00;1.00;;;;;;;;5066108;28;50299;-74
2023/04/06 16:58:20;;;;;;;;;1.00;1.00;;;;;;;;5066330;28;50219;-72
2023/04/06 17:00:45;;;;;;;;;2.75;1.00;;;;;;;;5063193;28;49940;-73
2023/04/06 17:03:11;;;;;;;;;1.75;1.00;;;;;;;;5065946;28;50104;-71
2023/04/06 17:05:36;;;;;;;;;2.75;1.50;;;;;;;;5061860;28;50329;-71
2023/04/06 17:08:01;;;;;;;;;3.00;3.00;;;;;;;;5055881;28;50171;-73
2023/04/06 17:10:26;;;;;;;;;1.00;1.00;;;;;;;;5051879;28;51576;-74
2023/04/06 17:12:51;;;;;;;;;1.50;1.25;;;;;;;;5067614;28;49769;-72
2023/04/06 17:15:17;;;;;;;;;1.25;1.25;;;;;;;;5047642;28;49966;-72
2023/04/06 17:17:42;;;;;;;;;1.00;1.00;;;;;;;;5063376;28;49958;-72
2023/04/06 17:20:08;;;;;;;;;0.75;0.00;;;;;;;;5065458;28;50871;-71
2023/04/06 17:22:33;;;;;;;;;3.00;1.75;;;;;;;;5059197;28;49922;-72
2023/04/06 17:24:59;;;;;;;;;1.00;0.75;;;;;;;;5060874;28;50047;-71
2023/04/06 17:27:25;;;;;;;;;1.50;1.00;;;;;;;;5060108;28;50020;-72
2023/04/06 17:29:50;;;;;;;;;2.50;1.00;;;;;;;;5059112;28;50058;-73
2023/04/06 17:32:18;;;;;;;;;2.00;1.00;;;;;;;;5045053;28;49865;-70
2023/04/06 17:34:43;;;;;;;;;1.50;1.50;;;;;;;;5063655;28;49760;-73
2023/04/06 17:37:08;;;;;;;;;3.25;2.25;;;;;;;;5055984;28;50044;-72
2023/04/06 17:39:33;;;;;;;;;1.00;1.00;;;;;;;;5037502;28;51272;-82
2023/04/06 17:41:58;;;;;;;;;3.00;1.75;;;;;;;;5060125;28;50068;-80
2023/04/06 17:44:24;;;;;;;;;1.75;1.50;;;;;;;;5069644;28;50180;-77
2023/04/06 17:46:49;;;;;;;;;2.00;2.00;;;;;;;;5068300;28;50355;-77
2023/04/06 17:49:14;;;;;;;;;0.00;0.00;;;;;;;;5068108;28;50411;-78
2023/04/06 17:51:40;;;;;;;;;5.25;2.25;;;;;;;;5040954;28;49824;-81
2023/04/06 17:54:05;;;;;;;;;0.00;0.00;;;;;;;;5069377;28;49771;-78
2023/04/06 17:56:30;;;;;;;;;1.00;0.50;;;;;;;;5063706;28;50038;-76
2023/04/06 17:58:56;;;;;;;;;1.50;1.50;;;;;;;;5048870;28;50525;-78
2023/04/06 18:01:21;;;;;;;;;2.00;1.00;;;;;;;;5057762;28;50146;-75
2023/04/06 18:03:46;;;;;;;;;1.75;1.00;;;;;;;;5059672;28;50099;-80
2023/04/06 18:06:12;;;;;;;;;2.00;1.00;;;;;;;;5055778;28;49748;-75
2023/04/06 18:08:38;;;;;;;;;3.25;1.00;;;;;;;;5058275;28;49792;-77
2023/04/06 18:11:03;;;;;;;;;1.00;1.00;;;;;;;;5058579;28;49999;-74
2023/04/06 18:13:28;;;;;;;;;1.00;1.00;;;;;;;;5051220;28;49779;-78
2023/04/06 18:15:53;;;;;;;;;2.75;2.00;;;;;;;;5053583;28;50187;-73
2023/04/06 18:18:19;;;;;;;;;3.00;1.50;;;;;;;;5061662;28;50636;-83
2023/04/06 18:20:44;;;;;;;;;1.00;1.00;;;;;;;;5054687;28;49657;-86
2023/04/06 18:23:10;;;;;;;;;2.25;1.75;;;;;;;;5053795;28;49840;-81
2023/04/06 18:25:39;;;;;;;;;5.00;3.00;;;;;;;;5039266;28;49837;-78
2023/04/06 18:28:04;;;;;;;;;2.75;2.00;;;;;;;;5053159;28;50262;-78
2023/04/06 18:30:29;;;;;;;;;3.00;1.00;;;;;;;;5055802;28;49744;-82
2023/04/06 18:32:55;;;;;;;;;1.00;1.00;;;;;;;;5063839;28;50173;-83
2023/04/06 18:35:20;;;;;;;;;2.75;2.00;;;;;;;;5067781;28;50084;-79
2023/04/06 18:37:45;;;;;;;;;4.50;0.00;;;;;;;;5054035;28;50756;-77
2023/04/06 18:40:29;;;;;;;;;4.50;3.25;;;;;;;;5059291;28;49751;-78
2023/04/06 18:42:54;;;;;;;;;0.00;0.00;;;;;;;;5063131;28;49829;-80
2023/04/06 18:45:20;;;;;;;;;2.50;2.00;;;;;;;;5063538;27;49762;-78
2023/04/06 18:47:45;;;;;;;;;1.50;1.50;;;;;;;;5060381;27;49814;-79
2023/04/06 18:50:10;;;;;;;;;0.75;0.75;;;;;;;;5062966;28;49881;-79
2023/04/06 18:52:36;;;;;;;;;1.00;1.00;;;;;;;;5060739;27;49779;-79
2023/04/06 18:55:01;;;;;;;;;1.50;0.50;;;;;;;;5065306;28;49798;-80
2023/04/06 18:57:26;;;;;;;;;1.00;1.00;;;;;;;;5062337;28;50656;-80
2023/04/06 18:59:51;;;;;;;;;2.25;1.00;;;;;;;;5062754;27;49842;-81
2023/04/06 19:02:16;;;;;;;;;3.00;1.00;;;;;;;;5063601;27;50047;-78
2023/04/06 19:04:41;;;;;;;;;1.75;0.50;;;;;;;;5065175;28;50193;-77
2023/04/06 19:07:07;;;;;;;;;3.50;2.75;;;;;;;;5062632;28;50623;-75
2023/04/06 19:09:32;;;;;;;;;1.00;1.00;;;;;;;;5061555;28;49892;-78
2023/04/06 19:11:58;;;;;;;;;3.50;2.25;;;;;;;;5063094;28;49897;-77
2023/04/06 19:14:23;;;;;;;;;2.00;1.25;;;;;;;;5064060;28;51741;-79
2023/04/06 19:16:50;;;;;;;;;1.50;1.00;;;;;;;;5063304;28;51168;-76
2023/04/06 19:19:15;;;;;;;;;2.00;2.00;;;;;;;;5067187;27;49779;-75
2023/04/06 19:21:41;;;;;;;;;5.75;1.75;;;;;;;;5068873;28;49706;-76
2023/04/06 19:24:06;;;;;;;;;2.25;1.75;;;;;;;;5068319;28;50100;-76
2023/04/06 19:26:32;;;;;;;;;0.00;0.00;;;;;;;;5066398;28;50043;-76
2023/04/06 19:28:58;;;;;;;;;2.50;2.00;;;;;;;;5067803;28;50145;-76
2023/04/06 19:31:24;;;;;;;;;1.00;1.00;;;;;;;;5068875;28;49679;-76
2023/04/06 19:33:50;;;;;;;;;3.75;1.50;;;;;;;;5055887;28;49709;-77
2023/04/06 19:36:15;;;;;;;;;1.25;1.00;;;;;;;;5054449;28;50659;-78
2023/04/06 19:38:41;;;;;;;;;1.00;1.00;;;;;;;;5048014;28;49729;-78
2023/04/06 19:41:06;;;;;;;;;2.00;2.00;;;;;;;;5050533;28;49691;-78
2023/04/06 19:43:32;;;;;;;;;1.50;1.50;;;;;;;;5048437;28;49918;-77
2023/04/06 19:45:57;;;;;;;;;1.25;1.25;;;;;;;;5044958;28;50830;-78
2023/04/06 19:48:22;;;;;;;;;0.75;0.00;;;;;;;;5042408;28;50007;-77
2023/04/06 19:50:51;;;;;;;;;1.75;1.00;;;;;;;;5044356;28;49883;-76
2023/04/06 19:53:16;;;;;;;;;2.00;2.00;;;;;;;;5043066;28;51343;-77
2023/04/06 19:55:41;;;;;;;;;4.00;1.00;;;;;;;;5043200;28;50471;-78